Time,TemperatureF,DewpointF,PressureIn,WindDirection,WindDirectionDegrees,WindSpeedMPH,WindSpeedGustMPH,Humidity,HourlyPrecipIn,Conditions,Clouds,dailyrainin,SoftwareType,DateUTC
2013-07-10 00:00:00,73.8,65.0,29.86,WSW,251,6.0,10.0,75,0.00,,,0.00,weatherlink.com 1.10,2013-07-10 05:00:00,
2013-07-10 00:15:00,73.3,66.0,29.86,ENE,61,2.0,10.0,77,0.00,,,0.00,weatherlink.com 1.10,2013-07-10 05:15:00,
2013-07-10 00:30:00,72.9,65.0,29.86,WNW,290,2.0,13.0,77,0.00,,,0.00,weatherlink.com 1.10,2013-07-10 05:30:00,
2013-07-10 00:45:00,72.4,65.0,29.87,West,281,1.0,12.0,77,0.00,,,0.00,weatherlink.com 1.10,2013-07-10 05:45:00,
2013-07-10 01:00:00,71.9,64.0,29.87,WNW,300,6.0,9.0,77,0.00,,,0.00,weatherlink.com 1.10,2013-07-10 06:00:00,
2013-07-10 01:15:00,71.2,64.0,29.87,WNW,298,1.0,8.0,78,0.00,,,0.00,weatherlink.com 1.10,2013-07-10 06:15:00,
2013-07-10 01:30:00,70.5,64.0,29.87,West,271,2.0,11.0,79,0.00,,,0.00,weatherlink.com 1.10,2013-07-10 06:30:00,
2013-07-10 01:45:00,69.9,63.0,29.88,WNW,283,5.0,7.0,79,0.00,,,0.00,weatherlink.com 1.10,2013-07-10 06:45:00,
2013-07-10 02:00:00,69.5,62.0,29.88,SW,233,4.0,8.0,77,0.00,,,0.00,weatherlink.com 1.10,2013-07-10 07:00:00,
2013-07-10 02:16:00,68.9,62.0,29.88,West,276,1.0,10.0,78,0.00,,,0.00,weatherlink.com 1.10,2013-07-10 07:16:00,
2013-07-10 02:31:00,68.2,61.0,29.89,West,280,4.0,10.0,78,0.00,,,0.00,weatherlink.com 1.10,2013-07-10 07:31:00,
2013-07-10 02:49:00,67.4,60.0,29.90,WNW,294,4.0,11.0,77,0.00,,,0.00,weatherlink.com 1.10,2013-07-10 07:49:00,
2013-07-10 03:01:00,66.8,59.0,29.91,WSW,248,1.0,8.0,77,0.00,,,0.00,weatherlink.com 1.10,2013-07-10 08:01:00,
2013-07-10 03:16:00,66.3,59.0,29.91,WNW,285,0.0,12.0,77,0.00,,,0.00,weatherlink.com 1.10,2013-07-10 08:16:00,
2013-07-10 03:31:00,65.7,58.0,29.91,WNW,293,0.0,10.0,76,0.00,,,0.00,weatherlink.com 1.10,2013-07-10 08:31:00,
2013-07-10 03:46:00,65.1,57.0,29.92,NE,43,0.0,8.0,76,0.00,,,0.00,weatherlink.com 1.10,2013-07-10 08:46:00,
2013-07-10 04:01:00,64.8,58.0,29.93,WNW,287,3.0,6.0,78,0.00,,,0.00,weatherlink.com 1.10,2013-07-10 09:01:00,
2013-07-10 04:16:00,64.5,58.0,29.93,NW,307,0.0,8.0,79,0.00,,,0.00,weatherlink.com 1.10,2013-07-10 09:16:00,
2013-07-10 04:31:00,64.0,58.0,29.94,SSW,193,0.0,4.0,81,0.00,,,0.00,weatherlink.com 1.10,2013-07-10 09:31:00,
2013-07-10 04:46:00,63.7,58.0,29.94,NW,314,0.0,10.0,81,0.00,,,0.00,weatherlink.com 1.10,2013-07-10 09:46:00,
2013-07-10 05:01:00,63.3,58.0,29.95,WSW,252,0.0,5.0,82,0.00,,,0.00,weatherlink.com 1.10,2013-07-10 10:01:00,
2013-07-10 05:16:00,62.9,58.0,29.95,West,267,0.0,4.0,83,0.00,,,0.00,weatherlink.com 1.10,2013-07-10 10:16:00,
2013-07-10 05:31:00,62.4,58.0,29.95,WSW,248,0.0,2.0,84,0.00,,,0.00,weatherlink.com 1.10,2013-07-10 10:31:00,
2013-07-10 05:46:00,62.2,57.0,29.96,WSW,243,1.0,3.0,84,0.00,,,0.00,weatherlink.com 1.10,2013-07-10 10:46:00,
2013-07-10 06:01:00,62.0,58.0,29.97,NW,311,2.0,4.0,85,0.00,,,0.00,weatherlink.com 1.10,2013-07-10 11:01:00,
2013-07-10 06:16:00,62.1,58.0,29.97,WNW,287,2.0,7.0,85,0.00,,,0.00,weatherlink.com 1.10,2013-07-10 11:16:00,
2013-07-10 06:31:00,62.1,57.0,29.97,WNW,284,1.0,5.0,84,0.00,,,0.00,weatherlink.com 1.10,2013-07-10 11:31:00,
2013-07-10 06:46:00,62.3,57.0,29.98,WNW,289,0.0,7.0,84,0.00,,,0.00,weatherlink.com 1.10,2013-07-10 11:46:00,
2013-07-10 07:01:00,62.5,58.0,29.98,WNW,287,3.0,7.0,84,0.00,,,0.00,weatherlink.com 1.10,2013-07-10 12:01:00,
2013-07-10 07:16:00,62.7,58.0,29.98,WNW,295,0.0,7.0,84,0.00,,,0.00,weatherlink.com 1.10,2013-07-10 12:16:00,
2013-07-10 07:31:00,63.0,58.0,29.98,West,269,2.0,7.0,83,0.00,,,0.00,weatherlink.com 1.10,2013-07-10 12:31:00,
2013-07-10 07:46:00,63.4,58.0,29.98,WNW,288,3.0,6.0,82,0.00,,,0.00,weatherlink.com 1.10,2013-07-10 12:46:00,
2013-07-10 08:01:00,64.0,58.0,29.99,West,277,2.0,8.0,81,0.00,,,0.00,weatherlink.com 1.10,2013-07-10 13:01:00,
2013-07-10 08:16:00,64.9,58.0,29.99,NNE,29,1.0,6.0,79,0.00,,,0.00,weatherlink.com 1.10,2013-07-10 13:16:00,
2013-07-10 08:31:00,65.6,59.0,29.99,WNW,289,0.0,8.0,79,0.00,,,0.00,weatherlink.com 1.10,2013-07-10 13:31:00,
2013-07-10 08:46:00,66.4,59.0,29.99,West,259,1.0,7.0,77,0.00,,,0.00,weatherlink.com 1.10,2013-07-10 13:46:00,
2013-07-10 09:01:00,67.9,60.0,29.99,NE,34,0.0,4.0,75,0.00,,,0.00,weatherlink.com 1.10,2013-07-10 14:01:00,
2013-07-10 09:16:00,69.3,59.0,29.99,WNW,301,1.0,6.0,69,0.00,,,0.00,weatherlink.com 1.10,2013-07-10 14:16:00,
2013-07-10 09:31:00,70.6,59.0,29.99,North,11,0.0,7.0,66,0.00,,,0.00,weatherlink.com 1.10,2013-07-10 14:31:00,
2013-07-10 09:46:00,71.6,60.0,29.99,WSW,248,4.0,6.0,66,0.00,,,0.00,weatherlink.com 1.10,2013-07-10 14:46:00,
2013-07-10 10:01:00,72.3,60.0,29.99,WSW,239,4.0,7.0,65,0.00,,,0.00,weatherlink.com 1.10,2013-07-10 15:01:00,
2013-07-10 10:16:00,73.1,61.0,29.99,NNW,334,1.0,7.0,65,0.00,,,0.00,weatherlink.com 1.10,2013-07-10 15:16:00,
2013-07-10 10:31:00,73.2,60.0,29.99,NW,325,4.0,11.0,64,0.00,,,0.00,weatherlink.com 1.10,2013-07-10 15:31:00,
2013-07-10 10:46:00,74.1,61.0,29.99,North,360,1.0,5.0,63,0.00,,,0.00,weatherlink.com 1.10,2013-07-10 15:46:00,
2013-07-10 11:01:00,75.0,61.0,29.99,NE,44,3.0,4.0,62,0.00,,,0.00,weatherlink.com 1.10,2013-07-10 16:01:00,
2013-07-10 11:17:00,75.8,60.0,29.99,NNE,29,3.0,6.0,58,0.00,,,0.00,weatherlink.com 1.10,2013-07-10 16:17:00,
2013-07-10 11:32:00,75.4,60.0,29.99,NW,304,0.0,11.0,59,0.00,,,0.00,weatherlink.com 1.10,2013-07-10 16:32:00,
2013-07-10 11:47:00,76.2,59.0,29.99,NE,43,2.0,7.0,56,0.00,,,0.00,weatherlink.com 1.10,2013-07-10 16:47:00,
2013-07-10 12:02:00,76.4,56.0,29.98,NE,38,1.0,8.0,50,0.00,,,0.00,weatherlink.com 1.10,2013-07-10 17:02:00,
2013-07-10 12:17:00,76.6,57.0,29.98,WSW,240,8.0,10.0,51,0.00,,,0.00,weatherlink.com 1.10,2013-07-10 17:17:00,
2013-07-10 12:32:00,77.0,57.0,29.98,NE,37,1.0,6.0,50,0.00,,,0.00,weatherlink.com 1.10,2013-07-10 17:32:00,
2013-07-10 12:47:00,77.4,58.0,29.99,West,267,8.0,10.0,52,0.00,,,0.00,weatherlink.com 1.10,2013-07-10 17:47:00,
2013-07-10 13:02:00,77.9,59.0,29.98,WSW,253,5.0,9.0,52,0.00,,,0.00,weatherlink.com 1.10,2013-07-10 18:02:00,
2013-07-10 13:17:00,78.1,57.0,29.98,NNE,31,3.0,8.0,49,0.00,,,0.00,weatherlink.com 1.10,2013-07-10 18:17:00,
2013-07-10 13:32:00,78.0,57.0,29.98,ENE,60,3.0,7.0,49,0.00,,,0.00,weatherlink.com 1.10,2013-07-10 18:32:00,
2013-07-10 13:47:00,78.4,58.0,29.97,NE,42,3.0,7.0,50,0.00,,,0.00,weatherlink.com 1.10,2013-07-10 18:47:00,
2013-07-10 14:02:00,79.0,59.0,29.97,ENE,60,4.0,10.0,50,0.00,,,0.00,weatherlink.com 1.10,2013-07-10 19:02:00,
2013-07-10 14:17:00,78.9,58.0,29.97,NW,317,2.0,8.0,49,0.00,,,0.00,weatherlink.com 1.10,2013-07-10 19:17:00,
2013-07-10 14:32:00,79.4,59.0,29.97,NNE,20,2.0,8.0,50,0.00,,,0.00,weatherlink.com 1.10,2013-07-10 19:32:00,
2013-07-10 14:47:00,79.4,58.0,29.97,ENE,57,1.0,6.0,48,0.00,,,0.00,weatherlink.com 1.10,2013-07-10 19:47:00,
2013-07-10 15:02:00,79.6,58.0,29.97,West,278,4.0,7.0,47,0.00,,,0.00,weatherlink.com 1.10,2013-07-10 20:02:00,
2013-07-10 15:17:00,80.0,57.0,29.97,SW,225,1.0,4.0,46,0.00,,,0.00,weatherlink.com 1.10,2013-07-10 20:17:00,
2013-07-10 15:32:00,80.2,59.0,29.97,WSW,257,1.0,7.0,48,0.00,,,0.00,weatherlink.com 1.10,2013-07-10 20:32:00,
2013-07-10 15:47:00,79.8,60.0,29.97,WNW,289,4.0,8.0,51,0.00,,,0.00,weatherlink.com 1.10,2013-07-10 20:47:00,
2013-07-10 16:02:00,80.4,60.0,29.96,West,259,2.0,6.0,50,0.00,,,0.00,weatherlink.com 1.10,2013-07-10 21:02:00,
2013-07-10 16:17:00,80.2,58.0,29.96,ENE,65,4.0,9.0,47,0.00,,,0.00,weatherlink.com 1.10,2013-07-10 21:17:00,
2013-07-10 16:32:00,80.0,60.0,29.96,NNE,22,3.0,4.0,50,0.00,,,0.00,weatherlink.com 1.10,2013-07-10 21:32:00,
2013-07-10 16:47:00,80.7,58.0,29.96,SW,236,1.0,7.0,46,0.00,,,0.00,weatherlink.com 1.10,2013-07-10 21:47:00,
2013-07-10 17:02:00,81.5,58.0,29.96,West,265,4.0,5.0,45,0.00,,,0.00,weatherlink.com 1.10,2013-07-10 22:02:00,
2013-07-10 17:17:00,81.3,58.0,29.96,WSW,242,0.0,5.0,45,0.00,,,0.00,weatherlink.com 1.10,2013-07-10 22:17:00,
2013-07-10 17:32:00,81.3,59.0,29.96,West,278,2.0,5.0,46,0.00,,,0.00,weatherlink.com 1.10,2013-07-10 22:32:00,
2013-07-10 17:47:00,80.8,58.0,29.95,NNW,343,0.0,6.0,46,0.00,,,0.00,weatherlink.com 1.10,2013-07-10 22:47:00,
2013-07-10 18:02:00,81.0,58.0,29.95,WNW,283,0.0,5.0,45,0.00,,,0.00,weatherlink.com 1.10,2013-07-10 23:02:00,
2013-07-10 18:17:00,80.2,57.0,29.95,NW,304,0.0,5.0,45,0.00,,,0.00,weatherlink.com 1.10,2013-07-10 23:17:00,
2013-07-10 18:32:00,79.1,58.0,29.95,ENE,63,0.0,4.0,49,0.00,,,0.00,weatherlink.com 1.10,2013-07-10 23:32:00,
2013-07-10 18:47:00,79.3,58.0,29.95,NE,47,1.0,2.0,49,0.00,,,0.00,weatherlink.com 1.10,2013-07-10 23:47:00,
2013-07-10 19:02:00,78.7,58.0,29.95,NE,44,0.0,2.0,49,0.00,,,0.00,weatherlink.com 1.10,2013-07-11 00:02:00,
2013-07-10 19:17:00,79.1,57.0,29.95,West,264,0.0,1.0,47,0.00,,,0.00,weatherlink.com 1.10,2013-07-11 00:17:00,
2013-07-10 19:32:00,78.5,57.0,29.95,WNW,287,1.0,1.0,47,0.00,,,0.00,weatherlink.com 1.10,2013-07-11 00:32:00,
2013-07-10 19:47:00,78.3,58.0,29.95,WNW,287,0.0,4.0,50,0.00,,,0.00,weatherlink.com 1.10,2013-07-11 00:47:00,
2013-07-10 20:02:00,77.3,59.0,29.95,WNW,291,0.0,3.0,54,0.00,,,0.00,weatherlink.com 1.10,2013-07-11 01:02:00,
2013-07-10 20:17:00,75.4,57.0,29.95,WSW,238,0.0,2.0,54,0.00,,,0.00,weatherlink.com 1.10,2013-07-11 01:17:00,
2013-07-10 20:32:00,74.4,58.0,29.95,WNW,288,0.0,1.0,56,0.00,,,0.00,weatherlink.com 1.10,2013-07-11 01:32:00,
2013-07-10 20:47:00,72.5,58.0,29.95,WNW,288,0.0,0.0,60,0.00,,,0.00,weatherlink.com 1.10,2013-07-11 01:47:00,
2013-07-10 21:03:00,70.4,58.0,29.95,WNW,288,0.0,0.0,66,0.00,,,0.00,weatherlink.com 1.10,2013-07-11 02:03:00,
2013-07-10 21:18:00,68.5,58.0,29.96,WNW,288,0.0,0.0,69,0.00,,,0.00,weatherlink.com 1.10,2013-07-11 02:18:00,
2013-07-10 21:33:00,67.1,58.0,29.96,WNW,288,0.0,0.0,72,0.00,,,0.00,weatherlink.com 1.10,2013-07-11 02:33:00,
2013-07-10 21:48:00,66.0,58.0,29.97,WNW,288,0.0,0.0,76,0.00,,,0.00,weatherlink.com 1.10,2013-07-11 02:48:00,
2013-07-10 22:03:00,65.3,59.0,29.97,WNW,288,0.0,0.0,79,0.00,,,0.00,weatherlink.com 1.10,2013-07-11 03:03:00,
2013-07-10 22:18:00,64.4,58.0,29.97,WNW,288,0.0,0.0,80,0.00,,,0.00,weatherlink.com 1.10,2013-07-11 03:18:00,
2013-07-10 22:33:00,63.6,58.0,29.98,WNW,288,0.0,0.0,83,0.00,,,0.00,weatherlink.com 1.10,2013-07-11 03:33:00,
2013-07-10 22:48:00,63.2,58.0,29.98,WNW,288,0.0,0.0,84,0.00,,,0.00,weatherlink.com 1.10,2013-07-11 03:48:00,
2013-07-10 23:03:00,62.9,58.0,29.99,WNW,288,0.0,0.0,84,0.00,,,0.00,weatherlink.com 1.10,2013-07-11 04:03:00,
2013-07-10 23:18:00,62.7,58.0,29.99,WNW,288,0.0,0.0,85,0.00,,,0.00,weatherlink.com 1.10,2013-07-11 04:18:00,
2013-07-10 23:33:00,62.5,58.0,29.99,WNW,288,0.0,0.0,85,0.00,,,0.00,weatherlink.com 1.10,2013-07-11 04:33:00,
2013-07-10 23:48:00,62.4,58.0,30.00,WNW,288,0.0,0.0,86,0.00,,,0.00,weatherlink.com 1.10,2013-07-11 04:48:00,